sensor_id;sensor_type;location;lat;lon;timestamp;temperature;humidity
31038;DHT22;17702;47.590;7.666;2024-02-15T00:00:40;9.40;99.90
31038;DHT22;17702;47.590;7.666;2024-02-15T00:03:05;9.40;99.90
31038;DHT22;17702;47.590;7.666;2024-02-15T00:05:34;9.30;99.90
31038;DHT22;17702;47.590;7.666;2024-02-15T00:08:03;9.30;99.90
31038;DHT22;17702;47.590;7.666;2024-02-15T00:10:28;9.30;99.90
31038;DHT22;17702;47.590;7.666;2024-02-15T00:12:54;9.30;99.90
31038;DHT22;17702;47.590;7.666;2024-02-15T00:15:20;9.30;99.90
31038;DHT22;17702;47.590;7.666;2024-02-15T00:17:46;9.40;99.90
31038;DHT22;17702;47.590;7.666;2024-02-15T00:20:14;9.30;99.90
31038;DHT22;17702;47.590;7.666;2024-02-15T00:22:40;9.30;99.90
31038;DHT22;17702;47.590;7.666;2024-02-15T00:25:08;9.30;99.90
31038;DHT22;17702;47.590;7.666;2024-02-15T00:27:37;9.30;99.90
31038;DHT22;17702;47.590;7.666;2024-02-15T00:30:03;9.20;99.90
31038;DHT22;17702;47.590;7.666;2024-02-15T00:32:33;9.20;99.90
31038;DHT22;17702;47.590;7.666;2024-02-15T00:34:58;9.30;99.90
31038;DHT22;17702;47.590;7.666;2024-02-15T00:37:24;9.10;99.90
31038;DHT22;17702;47.590;7.666;2024-02-15T00:39:49;9.10;99.90
31038;DHT22;17702;47.590;7.666;2024-02-15T00:42:15;9.10;99.90
31038;DHT22;17702;47.590;7.666;2024-02-15T00:44:41;9.10;99.90
31038;DHT22;17702;47.590;7.666;2024-02-15T00:47:09;9.00;99.90
31038;DHT22;17702;47.590;7.666;2024-02-15T00:49:35;9.00;99.90
31038;DHT22;17702;47.590;7.666;2024-02-15T00:52:01;8.90;99.90
31038;DHT22;17702;47.590;7.666;2024-02-15T00:54:27;8.90;99.90
31038;DHT22;17702;47.590;7.666;2024-02-15T00:56:52;8.90;99.90
31038;DHT22;17702;47.590;7.666;2024-02-15T00:59:18;8.90;99.90
31038;DHT22;17702;47.590;7.666;2024-02-15T01:01:44;8.80;99.90
31038;DHT22;17702;47.590;7.666;2024-02-15T01:04:10;8.80;99.90
31038;DHT22;17702;47.590;7.666;2024-02-15T01:06:36;8.70;99.90
31038;DHT22;17702;47.590;7.666;2024-02-15T01:09:02;8.70;99.90
31038;DHT22;17702;47.590;7.666;2024-02-15T01:11:29;8.80;99.90
31038;DHT22;17702;47.590;7.666;2024-02-15T01:13:55;8.80;99.90
31038;DHT22;17702;47.590;7.666;2024-02-15T01:16:21;8.80;99.90
31038;DHT22;17702;47.590;7.666;2024-02-15T01:18:50;8.80;99.90
31038;DHT22;17702;47.590;7.666;2024-02-15T01:21:16;8.80;99.90
31038;DHT22;17702;47.590;7.666;2024-02-15T01:23:42;8.90;99.90
31038;DHT22;17702;47.590;7.666;2024-02-15T01:26:09;9.00;99.90
31038;DHT22;17702;47.590;7.666;2024-02-15T01:28:37;9.00;99.90
31038;DHT22;17702;47.590;7.666;2024-02-15T01:31:03;9.10;99.90
31038;DHT22;17702;47.590;7.666;2024-02-15T01:33:28;9.10;99.90
31038;DHT22;17702;47.590;7.666;2024-02-15T01:35:54;9.00;99.90
31038;DHT22;17702;47.590;7.666;2024-02-15T01:38:20;9.10;99.90
31038;DHT22;17702;47.590;7.666;2024-02-15T01:40:47;9.10;99.90
31038;DHT22;17702;47.590;7.666;2024-02-15T01:43:12;9.10;99.90
31038;DHT22;17702;47.590;7.666;2024-02-15T01:45:38;9.10;99.90
31038;DHT22;17702;47.590;7.666;2024-02-15T01:48:04;9.10;99.90
31038;DHT22;17702;47.590;7.666;2024-02-15T01:50:31;9.10;99.90
31038;DHT22;17702;47.590;7.666;2024-02-15T01:52:59;9.00;99.90
31038;DHT22;17702;47.590;7.666;2024-02-15T01:55:26;9.00;99.90
31038;DHT22;17702;47.590;7.666;2024-02-15T01:57:52;8.90;99.90
31038;DHT22;17702;47.590;7.666;2024-02-15T02:00:18;8.80;99.90
31038;DHT22;17702;47.590;7.666;2024-02-15T02:02:45;8.80;99.90
31038;DHT22;17702;47.590;7.666;2024-02-15T02:05:11;8.70;99.90
31038;DHT22;17702;47.590;7.666;2024-02-15T02:07:39;8.70;99.90
31038;DHT22;17702;47.590;7.666;2024-02-15T02:10:06;8.70;99.90
31038;DHT22;17702;47.590;7.666;2024-02-15T02:12:32;8.70;99.90
31038;DHT22;17702;47.590;7.666;2024-02-15T02:14:58;8.60;99.90
31038;DHT22;17702;47.590;7.666;2024-02-15T02:17:24;8.60;99.90
31038;DHT22;17702;47.590;7.666;2024-02-15T02:19:49;8.60;99.90
31038;DHT22;17702;47.590;7.666;2024-02-15T02:22:16;8.70;99.90
31038;DHT22;17702;47.590;7.666;2024-02-15T02:25:05;8.70;99.90
31038;DHT22;17702;47.590;7.666;2024-02-15T02:27:32;8.60;99.90
31038;DHT22;17702;47.590;7.666;2024-02-15T02:29:58;8.60;99.90
31038;DHT22;17702;47.590;7.666;2024-02-15T02:32:25;8.60;99.90
31038;DHT22;17702;47.590;7.666;2024-02-15T02:34:51;8.60;99.90
31038;DHT22;17702;47.590;7.666;2024-02-15T02:37:19;8.60;99.90
31038;DHT22;17702;47.590;7.666;2024-02-15T02:39:45;8.60;99.90
31038;DHT22;17702;47.590;7.666;2024-02-15T02:42:10;8.60;99.90
31038;DHT22;17702;47.590;7.666;2024-02-15T02:44:36;8.60;99.90
31038;DHT22;17702;47.590;7.666;2024-02-15T02:47:01;8.60;99.90
31038;DHT22;17702;47.590;7.666;2024-02-15T02:49:27;8.70;99.90
31038;DHT22;17702;47.590;7.666;2024-02-15T02:51:53;8.70;99.90
31038;DHT22;17702;47.590;7.666;2024-02-15T02:54:18;8.60;99.90
31038;DHT22;17702;47.590;7.666;2024-02-15T02:56:44;8.60;99.90
31038;DHT22;17702;47.590;7.666;2024-02-15T02:59:10;8.60;99.90
31038;DHT22;17702;47.590;7.666;2024-02-15T03:01:36;8.60;99.90
31038;DHT22;17702;47.590;7.666;2024-02-15T03:04:02;8.60;99.90
31038;DHT22;17702;47.590;7.666;2024-02-15T03:06:27;8.50;99.90
31038;DHT22;17702;47.590;7.666;2024-02-15T03:08:53;8.40;99.90
31038;DHT22;17702;47.590;7.666;2024-02-15T03:11:21;8.30;99.90
31038;DHT22;17702;47.590;7.666;2024-02-15T03:13:48;8.40;99.90
31038;DHT22;17702;47.590;7.666;2024-02-15T03:16:14;8.40;99.90
31038;DHT22;17702;47.590;7.666;2024-02-15T03:18:39;8.40;99.90
31038;DHT22;17702;47.590;7.666;2024-02-15T03:21:06;8.50;99.90
31038;DHT22;17702;47.590;7.666;2024-02-15T03:23:32;8.50;99.90
31038;DHT22;17702;47.590;7.666;2024-02-15T03:25:58;8.50;99.90
31038;DHT22;17702;47.590;7.666;2024-02-15T03:28:24;8.60;99.90
31038;DHT22;17702;47.590;7.666;2024-02-15T03:30:49;8.70;99.90
31038;DHT22;17702;47.590;7.666;2024-02-15T03:33:15;8.70;99.90
31038;DHT22;17702;47.590;7.666;2024-02-15T03:35:41;8.70;99.90
31038;DHT22;17702;47.590;7.666;2024-02-15T03:38:07;8.70;99.90
31038;DHT22;17702;47.590;7.666;2024-02-15T03:40:33;8.70;99.90
31038;DHT22;17702;47.590;7.666;2024-02-15T03:42:59;8.80;99.90
31038;DHT22;17702;47.590;7.666;2024-02-15T03:45:24;8.80;99.90
31038;DHT22;17702;47.590;7.666;2024-02-15T03:47:53;8.80;99.90
31038;DHT22;17702;47.590;7.666;2024-02-15T03:50:19;8.70;99.90
31038;DHT22;17702;47.590;7.666;2024-02-15T03:52:47;8.70;99.90
31038;DHT22;17702;47.590;7.666;2024-02-15T03:55:13;8.60;99.90
31038;DHT22;17702;47.590;7.666;2024-02-15T03:57:39;8.70;99.90
31038;DHT22;17702;47.590;7.666;2024-02-15T04:00:12;8.70;99.90
31038;DHT22;17702;47.590;7.666;2024-02-15T04:02:46;8.60;99.90
31038;DHT22;17702;47.590;7.666;2024-02-15T04:05:13;8.60;99.90
31038;DHT22;17702;47.590;7.666;2024-02-15T04:07:38;8.60;99.90
31038;DHT22;17702;47.590;7.666;2024-02-15T04:10:07;8.60;99.90
31038;DHT22;17702;47.590;7.666;2024-02-15T04:12:33;8.50;99.90
31038;DHT22;17702;47.590;7.666;2024-02-15T04:14:59;8.50;99.90
31038;DHT22;17702;47.590;7.666;2024-02-15T04:17:31;8.50;99.90
31038;DHT22;17702;47.590;7.666;2024-02-15T04:19:58;8.50;99.90
31038;DHT22;17702;47.590;7.666;2024-02-15T04:22:24;8.50;99.90
31038;DHT22;17702;47.590;7.666;2024-02-15T04:24:49;8.40;99.90
31038;DHT22;17702;47.590;7.666;2024-02-15T04:27:15;8.50;99.90
31038;DHT22;17702;47.590;7.666;2024-02-15T04:29:41;8.50;99.90
31038;DHT22;17702;47.590;7.666;2024-02-15T04:32:09;8.50;99.90
31038;DHT22;17702;47.590;7.666;2024-02-15T04:34:36;8.40;99.90
31038;DHT22;17702;47.590;7.666;2024-02-15T04:37:02;8.40;99.90
31038;DHT22;17702;47.590;7.666;2024-02-15T04:39:32;8.40;99.90
31038;DHT22;17702;47.590;7.666;2024-02-15T04:41:58;8.50;99.90
31038;DHT22;17702;47.590;7.666;2024-02-15T04:44:23;8.50;99.90
31038;DHT22;17702;47.590;7.666;2024-02-15T04:46:53;8.70;99.90
31038;DHT22;17702;47.590;7.666;2024-02-15T04:49:19;8.80;99.90
31038;DHT22;17702;47.590;7.666;2024-02-15T04:51:45;8.90;99.90
31038;DHT22;17702;47.590;7.666;2024-02-15T04:54:11;9.00;99.90
31038;DHT22;17702;47.590;7.666;2024-02-15T04:56:40;9.10;99.90
31038;DHT22;17702;47.590;7.666;2024-02-15T04:59:09;9.10;99.90
31038;DHT22;17702;47.590;7.666;2024-02-15T05:01:37;9.20;99.90
31038;DHT22;17702;47.590;7.666;2024-02-15T05:04:02;9.30;99.90
31038;DHT22;17702;47.590;7.666;2024-02-15T05:06:33;9.30;99.90
31038;DHT22;17702;47.590;7.666;2024-02-15T05:08:58;9.50;99.90
31038;DHT22;17702;47.590;7.666;2024-02-15T05:11:25;9.50;99.90
31038;DHT22;17702;47.590;7.666;2024-02-15T05:13:51;9.50;99.90
31038;DHT22;17702;47.590;7.666;2024-02-15T05:16:17;9.50;99.90
31038;DHT22;17702;47.590;7.666;2024-02-15T05:18:43;9.50;99.90
31038;DHT22;17702;47.590;7.666;2024-02-15T05:21:09;9.60;99.90
31038;DHT22;17702;47.590;7.666;2024-02-15T05:23:35;9.60;99.90
31038;DHT22;17702;47.590;7.666;2024-02-15T05:26:02;9.60;99.90
31038;DHT22;17702;47.590;7.666;2024-02-15T05:28:29;9.60;99.90
31038;DHT22;17702;47.590;7.666;2024-02-15T05:31:19;9.70;99.90
31038;DHT22;17702;47.590;7.666;2024-02-15T05:33:49;9.70;99.90
31038;DHT22;17702;47.590;7.666;2024-02-15T05:36:15;9.70;99.90
31038;DHT22;17702;47.590;7.666;2024-02-15T05:38:41;9.70;99.90
31038;DHT22;17702;47.590;7.666;2024-02-15T05:41:07;9.70;99.90
31038;DHT22;17702;47.590;7.666;2024-02-15T05:43:36;9.70;99.90
31038;DHT22;17702;47.590;7.666;2024-02-15T05:46:02;9.80;99.90
31038;DHT22;17702;47.590;7.666;2024-02-15T05:48:28;9.80;99.90
31038;DHT22;17702;47.590;7.666;2024-02-15T05:50:55;9.80;99.90
31038;DHT22;17702;47.590;7.666;2024-02-15T05:53:21;9.80;99.90
31038;DHT22;17702;47.590;7.666;2024-02-15T05:55:47;9.80;99.90
31038;DHT22;17702;47.590;7.666;2024-02-15T05:58:15;9.80;99.90
31038;DHT22;17702;47.590;7.666;2024-02-15T06:00:41;9.80;99.90
31038;DHT22;17702;47.590;7.666;2024-02-15T06:03:07;9.90;99.90
31038;DHT22;17702;47.590;7.666;2024-02-15T06:05:34;9.90;99.90
31038;DHT22;17702;47.590;7.666;2024-02-15T06:08:00;9.80;99.90
31038;DHT22;17702;47.590;7.666;2024-02-15T06:10:26;9.80;99.90
31038;DHT22;17702;47.590;7.666;2024-02-15T06:12:52;9.70;99.90
31038;DHT22;17702;47.590;7.666;2024-02-15T06:15:17;9.70;99.90
31038;DHT22;17702;47.590;7.666;2024-02-15T06:17:43;9.60;99.90
31038;DHT22;17702;47.590;7.666;2024-02-15T06:20:11;9.60;99.90
31038;DHT22;17702;47.590;7.666;2024-02-15T06:22:40;9.60;99.90
31038;DHT22;17702;47.590;7.666;2024-02-15T06:25:06;9.50;99.90
31038;DHT22;17702;47.590;7.666;2024-02-15T06:27:32;9.50;99.90
31038;DHT22;17702;47.590;7.666;2024-02-15T06:29:58;9.50;99.90
31038;DHT22;17702;47.590;7.666;2024-02-15T06:32:43;9.50;99.90
31038;DHT22;17702;47.590;7.666;2024-02-15T06:35:27;9.50;99.90
31038;DHT22;17702;47.590;7.666;2024-02-15T06:38:11;9.60;99.90
31038;DHT22;17702;47.590;7.666;2024-02-15T06:40:55;9.60;99.90
31038;DHT22;17702;47.590;7.666;2024-02-15T06:43:21;9.60;99.90
31038;DHT22;17702;47.590;7.666;2024-02-15T06:45:46;9.50;99.90
31038;DHT22;17702;47.590;7.666;2024-02-15T06:48:12;9.50;99.90
31038;DHT22;17702;47.590;7.666;2024-02-15T06:50:38;9.50;99.90
31038;DHT22;17702;47.590;7.666;2024-02-15T06:53:05;9.50;99.90
31038;DHT22;17702;47.590;7.666;2024-02-15T06:55:30;9.50;99.90
31038;DHT22;17702;47.590;7.666;2024-02-15T06:57:56;9.50;99.90
31038;DHT22;17702;47.590;7.666;2024-02-15T07:00:22;9.50;99.90
31038;DHT22;17702;47.590;7.666;2024-02-15T07:02:47;9.50;99.90
31038;DHT22;17702;47.590;7.666;2024-02-15T07:05:14;9.50;99.90
31038;DHT22;17702;47.590;7.666;2024-02-15T07:07:39;9.60;99.90
31038;DHT22;17702;47.590;7.666;2024-02-15T07:10:08;9.70;99.90
31038;DHT22;17702;47.590;7.666;2024-02-15T07:12:34;9.70;99.90
31038;DHT22;17702;47.590;7.666;2024-02-15T07:15:00;9.70;99.90
31038;DHT22;17702;47.590;7.666;2024-02-15T07:17:27;9.70;99.90
31038;DHT22;17702;47.590;7.666;2024-02-15T07:19:53;9.70;99.90
31038;DHT22;17702;47.590;7.666;2024-02-15T07:22:19;9.70;99.90
31038;DHT22;17702;47.590;7.666;2024-02-15T07:24:44;9.70;99.90
31038;DHT22;17702;47.590;7.666;2024-02-15T07:27:10;9.70;99.90
31038;DHT22;17702;47.590;7.666;2024-02-15T07:29:36;9.70;99.90
31038;DHT22;17702;47.590;7.666;2024-02-15T07:32:06;9.70;99.90
31038;DHT22;17702;47.590;7.666;2024-02-15T07:34:32;9.70;99.90
31038;DHT22;17702;47.590;7.666;2024-02-15T07:36:58;9.80;99.90
31038;DHT22;17702;47.590;7.666;2024-02-15T07:39:24;9.80;99.90
31038;DHT22;17702;47.590;7.666;2024-02-15T07:41:51;9.80;99.90
31038;DHT22;17702;47.590;7.666;2024-02-15T07:44:17;9.80;99.90
31038;DHT22;17702;47.590;7.666;2024-02-15T07:46:43;9.80;99.90
31038;DHT22;17702;47.590;7.666;2024-02-15T07:49:09;9.80;99.90
31038;DHT22;17702;47.590;7.666;2024-02-15T07:51:34;9.80;99.90
31038;DHT22;17702;47.590;7.666;2024-02-15T07:54:01;9.80;99.90
31038;DHT22;17702;47.590;7.666;2024-02-15T07:56:27;9.90;99.90
31038;DHT22;17702;47.590;7.666;2024-02-15T07:58:53;9.90;99.90
31038;DHT22;17702;47.590;7.666;2024-02-15T08:01:18;9.90;99.90
31038;DHT22;17702;47.590;7.666;2024-02-15T08:03:47;9.90;99.90
31038;DHT22;17702;47.590;7.666;2024-02-15T08:06:14;10.00;99.90
31038;DHT22;17702;47.590;7.666;2024-02-15T08:08:44;9.90;99.90
31038;DHT22;17702;47.590;7.666;2024-02-15T08:11:12;10.00;99.90
31038;DHT22;17702;47.590;7.666;2024-02-15T08:13:46;10.00;99.90
31038;DHT22;17702;47.590;7.666;2024-02-15T08:16:22;10.00;99.90
31038;DHT22;17702;47.590;7.666;2024-02-15T08:18:48;10.00;99.90
31038;DHT22;17702;47.590;7.666;2024-02-15T08:21:17;10.10;99.90
31038;DHT22;17702;47.590;7.666;2024-02-15T08:23:43;10.10;99.90
31038;DHT22;17702;47.590;7.666;2024-02-15T08:26:08;10.20;99.90
31038;DHT22;17702;47.590;7.666;2024-02-15T08:28:36;10.20;99.90
31038;DHT22;17702;47.590;7.666;2024-02-15T08:31:02;10.30;99.90
31038;DHT22;17702;47.590;7.666;2024-02-15T08:33:29;10.30;99.90
31038;DHT22;17702;47.590;7.666;2024-02-15T08:35:55;10.40;99.90
31038;DHT22;17702;47.590;7.666;2024-02-15T08:38:22;10.40;99.90
31038;DHT22;17702;47.590;7.666;2024-02-15T08:40:48;10.40;99.90
31038;DHT22;17702;47.590;7.666;2024-02-15T08:43:14;10.50;99.90
31038;DHT22;17702;47.590;7.666;2024-02-15T08:45:41;10.60;99.90
31038;DHT22;17702;47.590;7.666;2024-02-15T08:48:07;10.60;99.90
31038;DHT22;17702;47.590;7.666;2024-02-15T08:50:33;10.60;99.90
31038;DHT22;17702;47.590;7.666;2024-02-15T08:52:58;10.70;99.90
31038;DHT22;17702;47.590;7.666;2024-02-15T08:55:24;10.70;99.90
31038;DHT22;17702;47.590;7.666;2024-02-15T08:57:52;10.80;99.90
31038;DHT22;17702;47.590;7.666;2024-02-15T09:00:18;10.90;99.90
31038;DHT22;17702;47.590;7.666;2024-02-15T09:02:44;10.90;99.90
31038;DHT22;17702;47.590;7.666;2024-02-15T09:05:10;10.90;99.90
31038;DHT22;17702;47.590;7.666;2024-02-15T09:07:38;10.90;99.90
31038;DHT22;17702;47.590;7.666;2024-02-15T09:10:07;11.00;99.90
31038;DHT22;17702;47.590;7.666;2024-02-15T09:12:35;11.00;99.90
31038;DHT22;17702;47.590;7.666;2024-02-15T09:15:03;11.10;99.90
31038;DHT22;17702;47.590;7.666;2024-02-15T09:17:28;11.10;99.90
31038;DHT22;17702;47.590;7.666;2024-02-15T09:19:56;11.10;99.90
31038;DHT22;17702;47.590;7.666;2024-02-15T09:22:22;11.20;99.90
31038;DHT22;17702;47.590;7.666;2024-02-15T09:24:48;11.30;99.90
31038;DHT22;17702;47.590;7.666;2024-02-15T09:27:13;11.30;99.90
31038;DHT22;17702;47.590;7.666;2024-02-15T09:29:39;11.40;99.90
31038;DHT22;17702;47.590;7.666;2024-02-15T09:32:06;11.50;99.90
31038;DHT22;17702;47.590;7.666;2024-02-15T09:34:31;11.60;99.90
31038;DHT22;17702;47.590;7.666;2024-02-15T09:36:58;11.80;99.90
31038;DHT22;17702;47.590;7.666;2024-02-15T09:39:23;12.20;99.90
31038;DHT22;17702;47.590;7.666;2024-02-15T09:41:49;12.50;99.90
31038;DHT22;17702;47.590;7.666;2024-02-15T09:44:24;12.80;99.80
31038;DHT22;17702;47.590;7.666;2024-02-15T09:47:05;13.00;98.60
31038;DHT22;17702;47.590;7.666;2024-02-15T09:49:38;13.30;98.70
31038;DHT22;17702;47.590;7.666;2024-02-15T09:52:08;13.50;97.90
31038;DHT22;17702;47.590;7.666;2024-02-15T09:54:41;13.50;96.70
31038;DHT22;17702;47.590;7.666;2024-02-15T09:57:11;13.50;96.60
31038;DHT22;17702;47.590;7.666;2024-02-15T09:59:40;13.50;96.40
31038;DHT22;17702;47.590;7.666;2024-02-15T10:02:07;13.60;96.30
31038;DHT22;17702;47.590;7.666;2024-02-15T10:04:37;13.70;96.50
31038;DHT22;17702;47.590;7.666;2024-02-15T10:07:03;13.70;94.90
31038;DHT22;17702;47.590;7.666;2024-02-15T10:09:31;13.80;95.10
31038;DHT22;17702;47.590;7.666;2024-02-15T10:11:59;14.00;94.70
31038;DHT22;17702;47.590;7.666;2024-02-15T10:14:25;14.10;94.40
31038;DHT22;17702;47.590;7.666;2024-02-15T10:16:54;14.20;94.30
31038;DHT22;17702;47.590;7.666;2024-02-15T10:19:21;14.30;93.60
31038;DHT22;17702;47.590;7.666;2024-02-15T10:21:54;14.30;93.40
31038;DHT22;17702;47.590;7.666;2024-02-15T10:24:23;14.40;92.90
31038;DHT22;17702;47.590;7.666;2024-02-15T10:26:50;14.30;93.60
31038;DHT22;17702;47.590;7.666;2024-02-15T10:29:16;14.40;92.90
31038;DHT22;17702;47.590;7.666;2024-02-15T10:31:57;14.50;93.20
31038;DHT22;17702;47.590;7.666;2024-02-15T10:34:24;14.70;92.10
31038;DHT22;17702;47.590;7.666;2024-02-15T10:36:50;14.80;91.50
31038;DHT22;17702;47.590;7.666;2024-02-15T10:39:17;14.80;91.70
31038;DHT22;17702;47.590;7.666;2024-02-15T10:41:49;14.90;91.90
31038;DHT22;17702;47.590;7.666;2024-02-15T10:44:23;15.00;91.70
31038;DHT22;17702;47.590;7.666;2024-02-15T10:46:52;15.00;90.70
31038;DHT22;17702;47.590;7.666;2024-02-15T10:49:22;15.00;90.60
31038;DHT22;17702;47.590;7.666;2024-02-15T10:51:51;14.90;89.00
31038;DHT22;17702;47.590;7.666;2024-02-15T10:56:54;14.80;89.40
31038;DHT22;17702;47.590;7.666;2024-02-15T10:59:24;14.80;88.20
31038;DHT22;17702;47.590;7.666;2024-02-15T11:01:57;14.80;89.20
31038;DHT22;17702;47.590;7.666;2024-02-15T11:04:26;14.80;88.30
31038;DHT22;17702;47.590;7.666;2024-02-15T11:06:58;14.70;87.40
31038;DHT22;17702;47.590;7.666;2024-02-15T11:09:24;14.70;88.60
31038;DHT22;17702;47.590;7.666;2024-02-15T11:11:52;14.80;87.80
31038;DHT22;17702;47.590;7.666;2024-02-15T11:14:29;14.70;87.70
31038;DHT22;17702;47.590;7.666;2024-02-15T11:16:58;14.80;87.60
31038;DHT22;17702;47.590;7.666;2024-02-15T11:22:01;14.70;88.50
31038;DHT22;17702;47.590;7.666;2024-02-15T11:24:32;14.80;87.90
31038;DHT22;17702;47.590;7.666;2024-02-15T11:26:59;14.80;88.60
31038;DHT22;17702;47.590;7.666;2024-02-15T11:30:00;14.90;87.90
31038;DHT22;17702;47.590;7.666;2024-02-15T11:32:49;14.90;87.00
31038;DHT22;17702;47.590;7.666;2024-02-15T11:35:20;15.00;85.10
31038;DHT22;17702;47.590;7.666;2024-02-15T11:40:17;15.10;86.60
31038;DHT22;17702;47.590;7.666;2024-02-15T11:42:44;15.10;85.50
31038;DHT22;17702;47.590;7.666;2024-02-15T11:45:11;15.20;84.50
31038;DHT22;17702;47.590;7.666;2024-02-15T11:47:38;15.30;83.80
31038;DHT22;17702;47.590;7.666;2024-02-15T11:50:08;15.20;85.20
31038;DHT22;17702;47.590;7.666;2024-02-15T11:52:46;15.30;83.90
31038;DHT22;17702;47.590;7.666;2024-02-15T11:55:18;15.20;84.60
31038;DHT22;17702;47.590;7.666;2024-02-15T11:58:01;15.30;84.80
31038;DHT22;17702;47.590;7.666;2024-02-15T12:00:42;15.30;84.60
31038;DHT22;17702;47.590;7.666;2024-02-15T12:03:26;15.30;82.70
31038;DHT22;17702;47.590;7.666;2024-02-15T12:06:11;15.30;83.70
31038;DHT22;17702;47.590;7.666;2024-02-15T12:08:55;15.30;83.10
31038;DHT22;17702;47.590;7.666;2024-02-15T12:11:40;15.30;82.90
31038;DHT22;17702;47.590;7.666;2024-02-15T12:14:25;15.40;83.30
31038;DHT22;17702;47.590;7.666;2024-02-15T12:17:11;15.40;82.90
31038;DHT22;17702;47.590;7.666;2024-02-15T12:19:57;15.50;83.40
31038;DHT22;17702;47.590;7.666;2024-02-15T12:22:35;15.50;83.40
31038;DHT22;17702;47.590;7.666;2024-02-15T12:25:02;15.60;83.00
31038;DHT22;17702;47.590;7.666;2024-02-15T12:27:38;15.70;81.40
31038;DHT22;17702;47.590;7.666;2024-02-15T12:30:04;15.70;82.40
31038;DHT22;17702;47.590;7.666;2024-02-15T12:32:32;15.80;82.60
31038;DHT22;17702;47.590;7.666;2024-02-15T12:35:20;16.00;80.20
31038;DHT22;17702;47.590;7.666;2024-02-15T12:40:34;16.10;81.40
31038;DHT22;17702;47.590;7.666;2024-02-15T12:43:00;16.20;80.00
31038;DHT22;17702;47.590;7.666;2024-02-15T12:45:26;16.30;79.50
31038;DHT22;17702;47.590;7.666;2024-02-15T12:47:55;16.40;79.10
31038;DHT22;17702;47.590;7.666;2024-02-15T12:50:23;16.30;78.50
31038;DHT22;17702;47.590;7.666;2024-02-15T12:52:49;16.30;78.30
31038;DHT22;17702;47.590;7.666;2024-02-15T12:55:20;16.30;78.90
31038;DHT22;17702;47.590;7.666;2024-02-15T12:57:49;16.20;79.00
31038;DHT22;17702;47.590;7.666;2024-02-15T13:00:26;16.30;78.70
31038;DHT22;17702;47.590;7.666;2024-02-15T13:02:55;16.30;78.10
31038;DHT22;17702;47.590;7.666;2024-02-15T13:05:22;16.20;78.00
31038;DHT22;17702;47.590;7.666;2024-02-15T13:07:49;16.10;79.10
31038;DHT22;17702;47.590;7.666;2024-02-15T13:10:15;16.10;77.70
31038;DHT22;17702;47.590;7.666;2024-02-15T13:12:41;16.00;78.70
31038;DHT22;17702;47.590;7.666;2024-02-15T13:15:09;15.90;78.10
31038;DHT22;17702;47.590;7.666;2024-02-15T13:17:38;15.80;79.10
31038;DHT22;17702;47.590;7.666;2024-02-15T13:20:04;15.80;79.40
31038;DHT22;17702;47.590;7.666;2024-02-15T13:22:33;15.70;79.50
31038;DHT22;17702;47.590;7.666;2024-02-15T13:25:01;15.80;80.00
31038;DHT22;17702;47.590;7.666;2024-02-15T13:27:28;15.80;80.80
31038;DHT22;17702;47.590;7.666;2024-02-15T13:29:54;15.80;79.60
31038;DHT22;17702;47.590;7.666;2024-02-15T13:32:20;15.90;79.10
31038;DHT22;17702;47.590;7.666;2024-02-15T13:34:49;15.90;78.80
31038;DHT22;17702;47.590;7.666;2024-02-15T13:37:21;15.90;79.90
31038;DHT22;17702;47.590;7.666;2024-02-15T13:39:49;15.90;78.20
31038;DHT22;17702;47.590;7.666;2024-02-15T13:42:15;15.90;79.50
31038;DHT22;17702;47.590;7.666;2024-02-15T13:44:45;15.80;77.80
31038;DHT22;17702;47.590;7.666;2024-02-15T13:47:12;15.80;78.60
31038;DHT22;17702;47.590;7.666;2024-02-15T13:49:39;15.70;79.40
31038;DHT22;17702;47.590;7.666;2024-02-15T13:52:06;15.60;79.40
31038;DHT22;17702;47.590;7.666;2024-02-15T13:54:32;15.60;79.80
31038;DHT22;17702;47.590;7.666;2024-02-15T13:57:02;15.60;79.00
31038;DHT22;17702;47.590;7.666;2024-02-15T13:59:28;15.50;79.40
31038;DHT22;17702;47.590;7.666;2024-02-15T14:01:56;15.50;78.80
31038;DHT22;17702;47.590;7.666;2024-02-15T14:04:22;15.50;79.80
31038;DHT22;17702;47.590;7.666;2024-02-15T14:06:48;15.50;79.70
31038;DHT22;17702;47.590;7.666;2024-02-15T14:09:14;15.40;80.30
31038;DHT22;17702;47.590;7.666;2024-02-15T14:11:39;15.40;79.80
31038;DHT22;17702;47.590;7.666;2024-02-15T14:14:07;15.40;79.90
31038;DHT22;17702;47.590;7.666;2024-02-15T14:16:33;15.40;79.30
31038;DHT22;17702;47.590;7.666;2024-02-15T14:18:59;15.40;80.00
31038;DHT22;17702;47.590;7.666;2024-02-15T14:21:25;15.40;79.90
31038;DHT22;17702;47.590;7.666;2024-02-15T14:23:51;15.40;80.50
31038;DHT22;17702;47.590;7.666;2024-02-15T14:26:17;15.30;80.60
31038;DHT22;17702;47.590;7.666;2024-02-15T14:28:43;15.30;80.90
31038;DHT22;17702;47.590;7.666;2024-02-15T14:31:11;15.30;81.00
31038;DHT22;17702;47.590;7.666;2024-02-15T14:33:55;15.30;81.00
31038;DHT22;17702;47.590;7.666;2024-02-15T14:36:20;15.30;80.60
31038;DHT22;17702;47.590;7.666;2024-02-15T14:38:46;15.40;81.50
31038;DHT22;17702;47.590;7.666;2024-02-15T14:41:12;15.40;80.40
31038;DHT22;17702;47.590;7.666;2024-02-15T14:43:38;15.40;79.70
31038;DHT22;17702;47.590;7.666;2024-02-15T14:46:04;15.30;79.60
31038;DHT22;17702;47.590;7.666;2024-02-15T14:48:33;15.30;80.00
31038;DHT22;17702;47.590;7.666;2024-02-15T14:50:59;15.30;80.10
31038;DHT22;17702;47.590;7.666;2024-02-15T14:53:26;15.40;80.20
31038;DHT22;17702;47.590;7.666;2024-02-15T14:55:52;15.30;79.30
31038;DHT22;17702;47.590;7.666;2024-02-15T14:58:19;15.30;78.50
31038;DHT22;17702;47.590;7.666;2024-02-15T15:00:46;15.40;78.90
31038;DHT22;17702;47.590;7.666;2024-02-15T15:03:11;15.40;79.00
31038;DHT22;17702;47.590;7.666;2024-02-15T15:05:39;15.40;79.00
31038;DHT22;17702;47.590;7.666;2024-02-15T15:08:23;15.40;78.90
31038;DHT22;17702;47.590;7.666;2024-02-15T15:11:07;15.40;77.70
31038;DHT22;17702;47.590;7.666;2024-02-15T15:13:51;15.30;78.50
31038;DHT22;17702;47.590;7.666;2024-02-15T15:16:17;15.30;78.10
31038;DHT22;17702;47.590;7.666;2024-02-15T15:18:46;15.30;78.70
31038;DHT22;17702;47.590;7.666;2024-02-15T15:21:13;15.30;79.20
31038;DHT22;17702;47.590;7.666;2024-02-15T15:23:39;15.30;78.70
31038;DHT22;17702;47.590;7.666;2024-02-15T15:26:05;15.30;78.30
31038;DHT22;17702;47.590;7.666;2024-02-15T15:28:31;15.30;77.30
31038;DHT22;17702;47.590;7.666;2024-02-15T15:30:57;15.30;78.90
31038;DHT22;17702;47.590;7.666;2024-02-15T15:33:23;15.20;77.70
31038;DHT22;17702;47.590;7.666;2024-02-15T15:35:49;15.20;78.20
31038;DHT22;17702;47.590;7.666;2024-02-15T15:38:15;15.30;78.20
31038;DHT22;17702;47.590;7.666;2024-02-15T15:40:41;15.30;78.60
31038;DHT22;17702;47.590;7.666;2024-02-15T15:43:07;15.30;77.60
31038;DHT22;17702;47.590;7.666;2024-02-15T15:45:37;15.10;78.40
31038;DHT22;17702;47.590;7.666;2024-02-15T15:48:03;15.10;78.10
31038;DHT22;17702;47.590;7.666;2024-02-15T15:50:31;15.10;78.20
31038;DHT22;17702;47.590;7.666;2024-02-15T15:53:03;15.10;78.70
31038;DHT22;17702;47.590;7.666;2024-02-15T15:55:29;15.00;77.80